sensor_id;sensor_type;location;lat;lon;timestamp;P1;durP1;ratioP1;P2;durP2;ratioP2
33485;SDS011;19824;52.098;5.004;2023-03-14T06:02:38;12.25;;;5.07;;
33485;SDS011;19824;52.098;5.004;2023-03-14T06:05:21;13.77;;;5.25;;
33485;SDS011;19824;52.098;5.004;2023-03-14T06:07:58;16.58;;;5.07;;
33485;SDS011;19824;52.098;5.004;2023-03-14T06:10:28;10.18;;;2.95;;
33485;SDS011;19824;52.098;5.004;2023-03-14T06:13:05;9.88;;;2.47;;
33485;SDS011;19824;52.098;5.004;2023-03-14T06:15:35;7.15;;;1.92;;
33485;SDS011;19824;52.098;5.004;2023-03-14T06:18:15;9.07;;;1.92;;
33485;SDS011;19824;52.098;5.004;2023-03-14T06:20:45;5.30;;;1.52;;
33485;SDS011;19824;52.098;5.004;2023-03-14T06:23:22;6.55;;;1.20;;
33485;SDS011;19824;52.098;5.004;2023-03-14T06:25:59;6.35;;;1.27;;
33485;SDS011;19824;52.098;5.004;2023-03-14T06:28:29;6.80;;;1.15;;
33485;SDS011;19824;52.098;5.004;2023-03-14T06:31:06;4.22;;;0.88;;
33485;SDS011;19824;52.098;5.004;2023-03-14T06:33:39;8.05;;;1.55;;
33485;SDS011;19824;52.098;5.004;2023-03-14T06:36:15;8.95;;;1.20;;
33485;SDS011;19824;52.098;5.004;2023-03-14T06:38:46;5.40;;;1.38;;
33485;SDS011;19824;52.098;5.004;2023-03-14T06:41:22;5.55;;;1.08;;
33485;SDS011;19824;52.098;5.004;2023-03-14T06:43:53;6.93;;;1.23;;
33485;SDS011;19824;52.098;5.004;2023-03-14T06:46:29;6.32;;;1.20;;
33485;SDS011;19824;52.098;5.004;2023-03-14T06:49:02;5.32;;;1.20;;
33485;SDS011;19824;52.098;5.004;2023-03-14T06:51:39;5.03;;;1.33;;
33485;SDS011;19824;52.098;5.004;2023-03-14T06:54:09;6.50;;;1.65;;
33485;SDS011;19824;52.098;5.004;2023-03-14T06:56:46;6.85;;;1.58;;
33485;SDS011;19824;52.098;5.004;2023-03-14T06:59:16;6.75;;;1.48;;
33485;SDS011;19824;52.098;5.004;2023-03-14T07:01:56;6.05;;;1.67;;
33485;SDS011;19824;52.098;5.004;2023-03-14T07:04:29;8.63;;;1.55;;
33485;SDS011;19824;52.098;5.004;2023-03-14T07:07:05;6.75;;;1.92;;
33485;SDS011;19824;52.098;5.004;2023-03-14T07:09:36;5.32;;;1.40;;
33485;SDS011;19824;52.098;5.004;2023-03-14T07:12:13;6.97;;;1.63;;
33485;SDS011;19824;52.098;5.004;2023-03-14T07:14:43;11.07;;;2.00;;
33485;SDS011;19824;52.098;5.004;2023-03-14T07:17:19;6.72;;;1.80;;
33485;SDS011;19824;52.098;5.004;2023-03-14T07:19:52;6.30;;;1.80;;
33485;SDS011;19824;52.098;5.004;2023-03-14T07:22:31;7.43;;;2.00;;
33485;SDS011;19824;52.098;5.004;2023-03-14T07:25:01;9.10;;;1.73;;
33485;SDS011;19824;52.098;5.004;2023-03-14T07:27:38;6.80;;;1.65;;
33485;SDS011;19824;52.098;5.004;2023-03-14T07:30:09;5.65;;;1.30;;
33485;SDS011;19824;52.098;5.004;2023-03-14T07:32:47;5.85;;;1.23;;
33485;SDS011;19824;52.098;5.004;2023-03-14T07:35:21;4.22;;;1.40;;
33485;SDS011;19824;52.098;5.004;2023-03-14T07:37:57;7.38;;;1.60;;
33485;SDS011;19824;52.098;5.004;2023-03-14T07:40:27;9.60;;;1.92;;
33485;SDS011;19824;52.098;5.004;2023-03-14T07:43:04;7.00;;;1.88;;
33485;SDS011;19824;52.098;5.004;2023-03-14T07:45:44;7.00;;;1.42;;
33485;SDS011;19824;52.098;5.004;2023-03-14T07:48:16;10.02;;;1.67;;
33485;SDS011;19824;52.098;5.004;2023-03-14T07:50:57;6.03;;;1.52;;
33485;SDS011;19824;52.098;5.004;2023-03-14T07:53:27;7.18;;;1.70;;
33485;SDS011;19824;52.098;5.004;2023-03-14T07:56:04;11.07;;;1.73;;
33485;SDS011;19824;52.098;5.004;2023-03-14T07:58:35;10.45;;;1.73;;
33485;SDS011;19824;52.098;5.004;2023-03-14T08:01:11;9.82;;;1.98;;
33485;SDS011;19824;52.098;5.004;2023-03-14T08:03:42;12.73;;;2.10;;
33485;SDS011;19824;52.098;5.004;2023-03-14T08:06:21;5.80;;;1.65;;
33485;SDS011;19824;52.098;5.004;2023-03-14T08:08:51;6.15;;;1.42;;
33485;SDS011;19824;52.098;5.004;2023-03-14T08:11:27;9.57;;;0.88;;
33485;SDS011;19824;52.098;5.004;2023-03-14T08:14:04;5.57;;;0.80;;
33485;SDS011;19824;52.098;5.004;2023-03-14T08:16:35;7.07;;;0.90;;
33485;SDS011;19824;52.098;5.004;2023-03-14T08:19:11;9.65;;;1.23;;
33485;SDS011;19824;52.098;5.004;2023-03-14T08:21:44;14.30;;;1.20;;
33485;SDS011;19824;52.098;5.004;2023-03-14T08:24:20;6.05;;;1.00;;
33485;SDS011;19824;52.098;5.004;2023-03-14T08:26:57;6.90;;;1.20;;
33485;SDS011;19824;52.098;5.004;2023-03-14T08:29:28;5.38;;;1.13;;
33485;SDS011;19824;52.098;5.004;2023-03-14T08:32:04;5.45;;;0.93;;
33485;SDS011;19824;52.098;5.004;2023-03-14T08:34:42;9.88;;;1.35;;
33485;SDS011;19824;52.098;5.004;2023-03-14T08:37:15;8.87;;;1.63;;
33485;SDS011;19824;52.098;5.004;2023-03-14T08:39:53;6.95;;;1.42;;
33485;SDS011;19824;52.098;5.004;2023-03-14T08:42:23;6.85;;;1.77;;
33485;SDS011;19824;52.098;5.004;2023-03-14T08:45:00;5.78;;;0.90;;
33485;SDS011;19824;52.098;5.004;2023-03-14T08:47:31;8.98;;;1.15;;
33485;SDS011;19824;52.098;5.004;2023-03-14T08:50:08;9.98;;;1.55;;
33485;SDS011;19824;52.098;5.004;2023-03-14T08:52:44;5.95;;;1.33;;
33485;SDS011;19824;52.098;5.004;2023-03-14T08:55:20;7.78;;;1.40;;
33485;SDS011;19824;52.098;5.004;2023-03-14T08:57:50;12.90;;;1.58;;
33485;SDS011;19824;52.098;5.004;2023-03-14T09:00:27;7.70;;;1.35;;
33485;SDS011;19824;52.098;5.004;2023-03-14T09:02:58;9.35;;;1.65;;
33485;SDS011;19824;52.098;5.004;2023-03-14T09:05:35;11.85;;;1.85;;
33485;SDS011;19824;52.098;5.004;2023-03-14T09:08:08;11.93;;;1.65;;
33485;SDS011;19824;52.098;5.004;2023-03-14T09:10:44;11.32;;;1.42;;
33485;SDS011;19824;52.098;5.004;2023-03-14T09:13:14;7.35;;;1.40;;
33485;SDS011;19824;52.098;5.004;2023-03-14T09:15:51;8.05;;;1.48;;
33485;SDS011;19824;52.098;5.004;2023-03-14T09:18:22;9.35;;;1.90;;
33485;SDS011;19824;52.098;5.004;2023-03-14T09:20:58;12.65;;;1.98;;
33485;SDS011;19824;52.098;5.004;2023-03-14T09:23:38;14.18;;;2.13;;
33485;SDS011;19824;52.098;5.004;2023-03-14T09:26:11;14.93;;;2.33;;
33485;SDS011;19824;52.098;5.004;2023-03-14T09:28:48;11.77;;;1.80;;
33485;SDS011;19824;52.098;5.004;2023-03-14T09:31:18;19.90;;;2.88;;
33485;SDS011;19824;52.098;5.004;2023-03-14T09:33:56;12.02;;;2.15;;
33485;SDS011;19824;52.098;5.004;2023-03-14T09:36:26;17.65;;;2.78;;
33485;SDS011;19824;52.098;5.004;2023-03-14T09:39:05;13.25;;;2.55;;
33485;SDS011;19824;52.098;5.004;2023-03-14T09:41:36;25.80;;;2.65;;
33485;SDS011;19824;52.098;5.004;2023-03-14T09:44:19;16.98;;;3.00;;
33485;SDS011;19824;52.098;5.004;2023-03-14T09:46:55;18.42;;;3.17;;
33485;SDS011;19824;52.098;5.004;2023-03-14T09:49:36;15.80;;;2.63;;
33485;SDS011;19824;52.098;5.004;2023-03-14T09:52:12;20.52;;;2.85;;
33485;SDS011;19824;52.098;5.004;2023-03-14T09:54:56;17.75;;;2.97;;
33485;SDS011;19824;52.098;5.004;2023-03-14T09:57:32;18.95;;;3.03;;
33485;SDS011;19824;52.098;5.004;2023-03-14T10:00:14;18.85;;;2.90;;
33485;SDS011;19824;52.098;5.004;2023-03-14T10:02:53;20.92;;;3.40;;
33485;SDS011;19824;52.098;5.004;2023-03-14T10:05:25;17.15;;;3.13;;
33485;SDS011;19824;52.098;5.004;2023-03-14T10:08:03;17.73;;;2.85;;
33485;SDS011;19824;52.098;5.004;2023-03-14T10:10:36;20.05;;;2.47;;
33485;SDS011;19824;52.098;5.004;2023-03-14T10:13:14;17.30;;;2.60;;
33485;SDS011;19824;52.098;5.004;2023-03-14T10:15:50;17.08;;;2.85;;
33485;SDS011;19824;52.098;5.004;2023-03-14T10:18:29;18.58;;;2.60;;
33485;SDS011;19824;52.098;5.004;2023-03-14T10:21:02;16.73;;;2.80;;
33485;SDS011;19824;52.098;5.004;2023-03-14T10:23:42;19.25;;;3.17;;
33485;SDS011;19824;52.098;5.004;2023-03-14T10:26:18;23.38;;;3.55;;
33485;SDS011;19824;52.098;5.004;2023-03-14T10:29:08;21.35;;;2.90;;
33485;SDS011;19824;52.098;5.004;2023-03-14T10:31:46;18.58;;;2.90;;
33485;SDS011;19824;52.098;5.004;2023-03-14T10:34:27;24.95;;;3.65;;
33485;SDS011;19824;52.098;5.004;2023-03-14T10:37:04;18.25;;;3.10;;
33485;SDS011;19824;52.098;5.004;2023-03-14T10:39:45;20.15;;;3.38;;
33485;SDS011;19824;52.098;5.004;2023-03-14T10:42:21;18.75;;;3.45;;
33485;SDS011;19824;52.098;5.004;2023-03-14T10:45:03;20.45;;;3.53;;
33485;SDS011;19824;52.098;5.004;2023-03-14T10:47:58;21.23;;;2.80;;
33485;SDS011;19824;52.098;5.004;2023-03-14T10:50:35;24.35;;;3.35;;
33485;SDS011;19824;52.098;5.004;2023-03-14T10:53:13;21.00;;;3.85;;
33485;SDS011;19824;52.098;5.004;2023-03-14T10:55:47;22.00;;;3.13;;
33485;SDS011;19824;52.098;5.004;2023-03-14T10:58:28;20.65;;;2.92;;
33485;SDS011;19824;52.098;5.004;2023-03-14T11:01:04;25.45;;;3.83;;
33485;SDS011;19824;52.098;5.004;2023-03-14T11:03:54;16.92;;;3.28;;
33485;SDS011;19824;52.098;5.004;2023-03-14T11:06:32;19.67;;;3.20;;
33485;SDS011;19824;52.098;5.004;2023-03-14T11:09:18;15.13;;;3.08;;
33485;SDS011;19824;52.098;5.004;2023-03-14T11:11:58;18.30;;;3.03;;
33485;SDS011;19824;52.098;5.004;2023-03-14T11:14:50;17.92;;;3.55;;
33485;SDS011;19824;52.098;5.004;2023-03-14T11:17:30;17.10;;;3.30;;
33485;SDS011;19824;52.098;5.004;2023-03-14T11:20:24;20.70;;;3.50;;
33485;SDS011;19824;52.098;5.004;2023-03-14T11:23:12;19.90;;;2.95;;
33485;SDS011;19824;52.098;5.004;2023-03-14T11:25:48;18.70;;;3.33;;
33485;SDS011;19824;52.098;5.004;2023-03-14T11:28:35;15.07;;;2.80;;
33485;SDS011;19824;52.098;5.004;2023-03-14T11:31:11;16.67;;;3.10;;
33485;SDS011;19824;52.098;5.004;2023-03-14T11:33:56;13.02;;;2.80;;
33485;SDS011;19824;52.098;5.004;2023-03-14T11:36:37;18.15;;;2.80;;
33485;SDS011;19824;52.098;5.004;2023-03-14T11:39:17;16.83;;;2.92;;
33485;SDS011;19824;52.098;5.004;2023-03-14T11:41:50;16.85;;;3.08;;
33485;SDS011;19824;52.098;5.004;2023-03-14T11:44:32;19.95;;;2.55;;
33485;SDS011;19824;52.098;5.004;2023-03-14T11:47:10;13.63;;;2.33;;
33485;SDS011;19824;52.098;5.004;2023-03-14T11:49:51;11.23;;;2.53;;
33485;SDS011;19824;52.098;5.004;2023-03-14T11:52:29;10.88;;;2.28;;
33485;SDS011;19824;52.098;5.004;2023-03-14T11:55:11;8.65;;;1.83;;
33485;SDS011;19824;52.098;5.004;2023-03-14T11:57:56;8.00;;;2.10;;
33485;SDS011;19824;52.098;5.004;2023-03-14T12:00:30;12.13;;;2.70;;
33485;SDS011;19824;52.098;5.004;2023-03-14T12:03:13;11.23;;;2.33;;
33485;SDS011;19824;52.098;5.004;2023-03-14T12:05:58;7.90;;;1.77;;
33485;SDS011;19824;52.098;5.004;2023-03-14T12:08:46;10.55;;;2.08;;
33485;SDS011;19824;52.098;5.004;2023-03-14T12:11:19;12.90;;;2.75;;
33485;SDS011;19824;52.098;5.004;2023-03-14T12:14:20;8.45;;;2.22;;
33485;SDS011;19824;52.098;5.004;2023-03-14T12:16:54;11.20;;;2.58;;
33485;SDS011;19824;52.098;5.004;2023-03-14T12:19:37;11.77;;;2.45;;
33485;SDS011;19824;52.098;5.004;2023-03-14T12:25:06;8.68;;;1.90;;
33485;SDS011;19824;52.098;5.004;2023-03-14T12:27:48;10.52;;;1.88;;
33485;SDS011;19824;52.098;5.004;2023-03-14T12:30:41;8.63;;;1.75;;
33485;SDS011;19824;52.098;5.004;2023-03-14T12:33:14;11.60;;;2.80;;
33485;SDS011;19824;52.098;5.004;2023-03-14T12:36:30;11.82;;;1.80;;
33485;SDS011;19824;52.098;5.004;2023-03-14T12:39:31;9.23;;;1.90;;
33485;SDS011;19824;52.098;5.004;2023-03-14T12:42:17;10.40;;;1.75;;
33485;SDS011;19824;52.098;5.004;2023-03-14T12:45:15;8.35;;;2.20;;
33485;SDS011;19824;52.098;5.004;2023-03-14T12:48:05;10.77;;;1.70;;
33485;SDS011;19824;52.098;5.004;2023-03-14T12:50:42;9.63;;;2.20;;
33485;SDS011;19824;52.098;5.004;2023-03-14T12:56:44;8.13;;;2.05;;
33485;SDS011;19824;52.098;5.004;2023-03-14T12:59:33;11.18;;;1.70;;
33485;SDS011;19824;52.098;5.004;2023-03-14T13:05:03;15.93;;;2.17;;
33485;SDS011;19824;52.098;5.004;2023-03-14T13:13:21;8.65;;;1.58;;
33485;SDS011;19824;52.098;5.004;2023-03-14T13:15:54;11.43;;;1.60;;
33485;SDS011;19824;52.098;5.004;2023-03-14T13:18:36;7.40;;;1.70;;
33485;SDS011;19824;52.098;5.004;2023-03-14T13:21:10;9.70;;;2.22;;
33485;SDS011;19824;52.098;5.004;2023-03-14T13:23:56;11.63;;;1.60;;
33485;SDS011;19824;52.098;5.004;2023-03-14T13:26:35;8.52;;;1.52;;
33485;SDS011;19824;52.098;5.004;2023-03-14T13:29:16;8.55;;;1.85;;
33485;SDS011;19824;52.098;5.004;2023-03-14T13:31:49;12.57;;;1.90;;
33485;SDS011;19824;52.098;5.004;2023-03-14T13:34:29;11.02;;;1.65;;
33485;SDS011;19824;52.098;5.004;2023-03-14T13:37:01;8.75;;;1.65;;
33485;SDS011;19824;52.098;5.004;2023-03-14T13:39:38;8.80;;;1.80;;
33485;SDS011;19824;52.098;5.004;2023-03-14T13:42:14;10.65;;;1.98;;
33485;SDS011;19824;52.098;5.004;2023-03-14T13:44:52;9.35;;;2.10;;
33485;SDS011;19824;52.098;5.004;2023-03-14T13:50:02;9.80;;;1.70;;
33485;SDS011;19824;52.098;5.004;2023-03-14T13:52:35;8.25;;;1.48;;
33485;SDS011;19824;52.098;5.004;2023-03-14T13:55:14;8.57;;;1.63;;
33485;SDS011;19824;52.098;5.004;2023-03-14T13:57:53;15.60;;;1.83;;
33485;SDS011;19824;52.098;5.004;2023-03-14T14:00:30;10.20;;;1.65;;
